Flight Track Log - Related Links

Times and Time Zones

All times are in EDT time to prevent confusion due to time zone crossing. See the KAP33 flight status page for this flight to view local times or setup timezone preferences in your user account.

Time Position Orientation Groundspeed Altitude Reporting Facility
EDT Latitude Longitude Course Direction KTS MPH feet Rate Location/Type
Thu 09:30:00 AM 41.3080 -70.2671 290° West  Level FlightAware Approximate
Thu 09:31:00 AM 41.3171 -70.3016 289° West  Level FlightAware Approximate
Thu 09:32:00 AM 41.3211 -70.3265 283° West  Level FlightAware Approximate
Thu 09:33:00 AM 41.3270 -70.3622 283° West  Level FlightAware Approximate
Thu 09:34:00 AM 41.3330 -70.3979 283° West  Level FlightAware Approximate
Thu 09:35:00 AM 41.3415 -70.4327 288° West  Level FlightAware Approximate
Thu 09:36:00 AM 41.3502 -70.4674 288° West  Level FlightAware Approximate
Thu 09:37:00 AM 41.3589 -70.5022 288° West  Level FlightAware Approximate
Thu 09:37:29 AM 41.4500 -70.6150 318° Northwest 160 184 2,900  Level Boston Center
Thu 09:38:00 AM 41.3676 -70.5369 288° West  Level FlightAware Approximate
Thu 09:38:36 AM 41.4778 -70.6586 310° West 146 168 3,000  Level Boston Center
Thu 09:39:00 AM 41.3763 -70.5716 288° West  Level FlightAware Approximate
Thu 09:39:37 AM 41.5075 -70.6992 314° West 156 180 2,500  Level Boston Center
Thu 09:40:00 AM 41.3871 -70.6045 318° Northwest  Level FlightAware Approximate
Thu 09:40:37 AM 41.5375 -70.7483 309° West 167 192 2,000  Level Boston Center
Thu 09:41:00 AM 41.4075 -70.6290 318° Northwest  Level FlightAware Approximate
Thu 09:41:38 AM 41.5672 -70.7947 311° West 158 182 1,900  Level Boston Center
Thu 09:42:00 AM 41.4279 -70.6535 318° Northwest  Level FlightAware Approximate
Thu 09:42:38 AM 41.5928 -70.8358 310° West 147 169 1,900  Level Boston Center
Thu 09:43:39 AM 41.6225 -70.8739 316° Northwest 154 177 1,500 -492 Descending Boston Center
Thu 09:44:40 AM 41.6481 -70.9150 310° West 136 157 900 -626 Descending Boston Center
Thu 09:45:34 AM 41.6653 -70.9422 310° West 119 137 300 -667 Descending Boston Center
Thu 09:47:00 AM 41.6667 -70.9500 315° West  Level FlightAware Approximate
Thu 09:54:00 AM 41.6766 -70.9578 315° West  Level Estimated
Thu 09:55:00 AM 41.6766 -70.9578 315° West  Level Estimated
Thu 09:56:00 AM 41.6766 -70.9578 315° West  Level Estimated
Thu 09:57:00 AM 41.6766 -70.9578 315° West  Level Estimated
Thu 09:58:00 AM 41.6766 -70.9578 315° West  Level Estimated
Thu 09:59:00 AM 41.6766 -70.9578 315° West  Level Estimated
Thu 10:00:00 AM 41.6766 -70.9578 315° West  Level Estimated
Thu 10:01:00 AM 41.6766 -70.9578 315° West  Level Estimated

Login

Don't have an account? Register now (free) for customized features, flight alerts, and more!